Time;durP1;ratioP1;P1;durP2;ratioP2;P2;SDS_P1;SDS_P2;PMS_P1;PMS_P2;Temp;Humidity;BMP_temperature;BMP_pressure;BME280_temperature;BME280_humidity;BME280_pressure;Samples;Min_cycle;Max_cycle;Signal;HPM_P1;HPM_P2
2021/04/12 00:00:36;;;;;;;8.63;4.60;;;4.60;97.00;;;;;;5064750;28;20462;-72
2021/04/12 00:03:09;;;;;;;7.97;4.27;;;4.50;97.60;;;;;;5067770;28;20417;-74
2021/04/12 00:05:59;;;;;;;8.73;4.50;;;4.50;97.60;;;;;;5064951;28;20453;-72
2021/04/12 00:08:48;;;;;;;6.67;3.80;;;4.40;97.30;;;;;;5058462;28;20450;-74
2021/04/12 00:11:43;;;;;;;6.90;3.80;;;4.40;97.90;;;;;;5070308;28;20454;-73
2021/04/12 00:14:39;;;;;;;9.20;4.43;;;4.30;97.80;;;;;;5065931;28;20921;-72
2021/04/12 00:17:23;;;;;;;7.73;3.90;;;4.30;98.10;;;;;;5060044;28;20469;-74
2021/04/12 00:19:55;;;;;;;8.63;4.00;;;4.40;98.20;;;;;;5069550;28;20424;-74
2021/04/12 00:22:38;;;;;;;7.47;3.80;;;4.40;97.90;;;;;;5069463;28;21026;-74
2021/04/12 00:25:13;;;;;;;8.80;4.57;;;4.30;97.60;;;;;;5069735;28;20428;-71
2021/04/12 00:27:53;;;;;;;7.40;4.40;;;4.20;97.60;;;;;;5069528;28;20478;-72
2021/04/12 00:30:54;;;;;;;10.90;5.00;;;4.10;97.50;;;;;;5070077;28;20977;-72
2021/04/12 00:33:31;;;;;;;9.70;4.70;;;4.10;98.10;;;;;;5026823;28;20440;-73
2021/04/12 00:36:00;;;;;;;6.93;4.50;;;4.00;98.00;;;;;;5057427;28;20406;-72
2021/04/12 00:38:34;;;;;;;9.93;4.53;;;4.00;98.10;;;;;;5069250;28;20445;-71
2021/04/12 00:41:15;;;;;;;9.80;4.55;;;3.90;97.70;;;;;;5066041;28;20794;-72
2021/04/12 00:44:17;;;;;;;9.87;5.33;;;3.90;98.10;;;;;;5066307;28;20604;-72
2021/04/12 00:46:54;;;;;;;10.80;4.80;;;3.90;98.40;;;;;;5069868;28;20445;-74
2021/04/12 00:49:36;;;;;;;10.57;5.13;;;3.90;98.70;;;;;;5069643;28;20426;-72
2021/04/12 00:52:05;;;;;;;8.03;4.57;;;4.00;98.80;;;;;;5055679;28;20488;-73
2021/04/12 00:55:03;;;;;;;9.10;4.70;;;4.00;98.90;;;;;;5071592;28;20426;-71
2021/04/12 00:57:40;;;;;;;9.13;4.43;;;3.90;98.30;;;;;;5040450;28;20849;-71
2021/04/12 01:00:27;;;;;;;9.80;5.00;;;3.80;98.20;;;;;;5060093;28;20414;-74
2021/04/12 01:03:08;;;;;;;8.07;4.50;;;3.90;98.40;;;;;;5074019;28;20430;-72
2021/04/12 01:05:44;;;;;;;10.77;5.30;;;3.70;98.10;;;;;;5073258;28;20447;-71
2021/04/12 01:08:48;;;;;;;9.40;4.97;;;3.70;98.20;;;;;;5059181;28;20442;-72
2021/04/12 01:11:20;;;;;;;8.13;4.37;;;3.70;98.40;;;;;;5068638;28;20501;-71
2021/04/12 01:14:10;;;;;;;10.80;5.30;;;3.70;98.70;;;;;;5068571;28;20418;-72
2021/04/12 01:16:47;;;;;;;10.50;4.87;;;3.70;99.00;;;;;;5074961;28;20475;-73
2021/04/12 01:19:49;;;;;;;10.97;5.90;;;3.70;98.70;;;;;;5071173;28;20432;-74
2021/04/12 01:22:52;;;;;;;11.20;5.37;;;3.70;98.60;;;;;;5068999;28;20555;-75
2021/04/12 01:25:39;;;;;;;12.20;6.20;;;3.50;98.20;;;;;;5064635;28;20435;-73
2021/04/12 01:28:27;;;;;;;12.87;6.57;;;3.50;98.80;;;;;;5068077;28;20565;-74
2021/04/12 01:31:07;;;;;;;11.33;5.33;;;3.50;98.70;;;;;;5068326;28;20478;-73
2021/04/12 01:33:45;;;;;;;12.43;5.20;;;3.50;98.90;;;;;;5072572;28;20430;-71
2021/04/12 01:36:29;;;;;;;11.93;6.07;;;3.40;98.70;;;;;;5072201;28;20425;-73
2021/04/12 01:38:57;;;;;;;16.10;6.40;;;3.50;99.10;;;;;;5072182;28;20429;-73
2021/04/12 01:41:49;;;;;;;13.53;5.90;;;3.50;99.20;;;;;;5070625;28;20433;-71
2021/04/12 01:44:23;;;;;;;12.10;5.73;;;3.40;99.10;;;;;;5077081;28;20438;-73
2021/04/12 01:46:57;;;;;;;12.50;6.63;;;3.40;99.30;;;;;;5066840;28;20463;-71
2021/04/12 01:49:40;;;;;;;10.90;5.93;;;3.40;99.50;;;;;;5080074;28;20445;-73
2021/04/12 01:52:13;;;;;;;11.57;6.20;;;3.50;99.60;;;;;;5072402;28;20466;-73
2021/04/12 01:55:02;;;;;;;12.30;6.13;;;3.40;99.00;;;;;;5071364;28;20452;-73
2021/04/12 01:57:45;;;;;;;12.80;6.53;;;3.40;99.20;;;;;;5070805;28;20478;-72
2021/04/12 02:00:31;;;;;;;13.13;6.60;;;3.50;99.60;;;;;;5060930;28;20418;-73
2021/04/12 02:03:14;;;;;;;11.90;6.10;;;3.40;99.60;;;;;;5071970;28;20518;-73
2021/04/12 02:05:58;;;;;;;9.60;5.17;;;3.50;99.60;;;;;;5074095;28;20422;-72
2021/04/12 02:08:42;;;;;;;12.93;6.20;;;3.40;99.00;;;;;;5073037;28;20449;-73
2021/04/12 02:11:33;;;;;;;12.17;5.63;;;3.40;99.30;;;;;;5071271;28;20492;-73
2021/04/12 02:14:15;;;;;;;12.40;5.93;;;3.40;99.20;;;;;;5069842;28;21009;-72
2021/04/12 02:16:53;;;;;;;13.40;6.17;;;3.30;98.90;;;;;;5059075;28;20980;-73
2021/04/12 02:19:28;;;;;;;11.35;6.07;;;3.40;99.10;;;;;;5071011;28;20425;-72
2021/04/12 02:22:17;;;;;;;15.15;7.32;;;3.50;99.30;;;;;;5071031;28;20612;-73
2021/04/12 02:25:02;;;;;;;12.45;5.90;;;3.40;99.00;;;;;;5059749;28;20196;-73
2021/04/12 02:27:28;;;;;;;14.57;6.13;;;3.30;99.00;;;;;;5064412;28;20226;-72
2021/04/12 02:30:04;;;;;;;11.90;6.90;;;3.30;99.00;;;;;;5071619;28;20850;-73
2021/04/12 02:32:50;;;;;;;12.90;6.00;;;3.20;98.80;;;;;;5072340;28;20231;-72
2021/04/12 02:35:31;;;;;;;12.30;6.13;;;3.10;98.70;;;;;;5075276;28;20422;-72
2021/04/12 02:38:15;;;;;;;10.30;5.60;;;3.20;99.00;;;;;;5074990;28;20426;-73
2021/04/12 02:40:59;;;;;;;15.40;6.88;;;3.30;99.10;;;;;;5074173;28;20421;-74
2021/04/12 02:43:59;;;;;;;14.00;6.30;;;3.20;98.90;;;;;;5073834;28;20180;-73
2021/04/12 02:46:49;;;;;;;12.00;6.70;;;3.30;98.80;;;;;;5069820;28;20441;-73
2021/04/12 02:49:52;;;;;;;13.87;7.10;;;3.20;98.80;;;;;;5074598;28;20422;-72
2021/04/12 02:52:36;;;;;;;15.10;6.63;;;3.30;99.00;;;;;;5060262;28;20479;-73
2021/04/12 02:55:32;;;;;;;12.88;6.97;;;3.30;99.10;;;;;;5073477;28;20430;-73
2021/04/12 02:58:35;;;;;;;16.25;7.28;;;3.30;98.80;;;;;;5073828;28;20200;-73
2021/04/12 03:01:42;;;;;;;16.98;8.40;;;3.30;98.80;;;;;;5072773;28;20192;-73
2021/04/12 03:04:34;;;;;;;15.07;6.87;;;3.30;98.80;;;;;;5014365;28;20194;-73
2021/04/12 03:07:30;;;;;;;13.40;6.97;;;3.20;98.80;;;;;;4998632;28;20453;-73
2021/04/12 03:10:05;;;;;;;15.57;7.07;;;3.20;98.80;;;;;;5009368;28;20575;-73
2021/04/12 03:12:46;;;;;;;17.20;8.18;;;3.30;98.80;;;;;;5009321;28;20529;-72
2021/04/12 03:15:27;;;;;;;17.80;7.60;;;3.30;99.10;;;;;;5010118;28;20298;-72
2021/04/12 03:18:25;;;;;;;14.93;7.00;;;3.40;99.30;;;;;;5009611;28;20524;-72
2021/04/12 03:21:08;;;;;;;12.33;6.47;;;3.30;99.00;;;;;;5010768;28;20466;-73
2021/04/12 03:23:34;;;;;;;11.83;6.23;;;3.30;98.90;;;;;;5011751;28;20515;-72
2021/04/12 03:26:40;;;;;;;12.80;6.37;;;3.30;98.70;;;;;;4997123;28;20929;-72
2021/04/12 03:29:21;;;;;;;11.90;6.03;;;3.40;98.80;;;;;;4972123;28;20195;-72
2021/04/12 03:32:04;;;;;;;16.53;7.27;;;3.50;99.00;;;;;;4971579;28;20501;-73
2021/04/12 03:34:39;;;;;;;16.90;6.67;;;3.50;98.70;;;;;;4985287;28;20425;-73
2021/04/12 03:37:23;;;;;;;11.83;5.80;;;3.40;98.40;;;;;;5014073;28;20479;-73
2021/04/12 03:39:49;;;;;;;10.83;5.50;;;3.30;97.90;;;;;;5030952;28;20434;-72
2021/04/12 03:42:50;;;;;;;13.30;6.67;;;3.30;98.00;;;;;;5031654;28;21003;-73
2021/04/12 03:45:53;;;;;;;12.68;6.05;;;3.30;97.80;;;;;;5030248;28;20189;-73
2021/04/12 03:49:03;;;;;;;15.03;6.30;;;3.30;98.10;;;;;;5029519;28;20260;-72
2021/04/12 03:52:14;;;;;;;15.48;6.75;;;3.20;98.00;;;;;;4954524;28;20467;-72
2021/04/12 03:55:14;;;;;;;14.82;6.20;;;3.20;98.00;;;;;;4952214;28;20196;-73
2021/04/12 03:58:09;;;;;;;12.17;6.00;;;3.20;98.00;;;;;;4951740;28;20238;-73
2021/04/12 04:00:45;;;;;;;13.13;6.10;;;3.20;97.90;;;;;;4952351;28;21250;-73
2021/04/12 04:03:46;;;;;;;16.43;6.50;;;3.20;97.90;;;;;;4964249;28;21029;-75
2021/04/12 04:06:18;;;;;;;13.00;5.63;;;3.30;97.90;;;;;;4945126;29;20581;-76
2021/04/12 04:09:02;;;;;;;12.10;6.30;;;3.40;98.00;;;;;;4990881;28;20449;-76
2021/04/12 04:12:05;;;;;;;13.47;6.77;;;3.50;98.00;;;;;;4981076;28;21056;-76
2021/04/12 04:15:08;;;;;;;14.97;7.10;;;3.70;97.90;;;;;;4988165;28;20815;-72
2021/04/12 04:18:08;;;;;;;17.17;8.27;;;3.50;96.90;;;;;;5000146;28;20476;-73
2021/04/12 04:21:06;;;;;;;14.70;7.83;;;3.50;97.20;;;;;;5000489;28;20440;-74
2021/04/12 04:24:01;;;;;;;16.00;7.93;;;3.40;97.60;;;;;;4999657;28;20460;-74
2021/04/12 04:26:30;;;;;;;17.03;7.57;;;3.40;97.70;;;;;;4977703;28;20940;-74
2021/04/12 04:29:27;;;;;;;16.95;7.82;;;3.30;97.80;;;;;;5060102;28;20445;-74
2021/04/12 04:32:35;;;;;;;16.00;7.50;;;3.20;97.60;;;;;;5069014;28;20583;-72
2021/04/12 04:35:22;;;;;;;17.20;8.50;;;3.30;98.00;;;;;;5061120;28;20426;-73
2021/04/12 04:38:21;;;;;;;20.60;8.70;;;3.20;98.00;;;;;;5070869;28;20519;-73
2021/04/12 04:41:40;;;;;;;20.30;8.17;;;3.20;98.20;;;;;;5059660;28;20253;-73
2021/04/12 04:44:24;;;;;;;14.60;7.90;;;3.30;98.50;;;;;;5071529;28;20478;-73
2021/04/12 04:46:59;;;;;;;18.97;9.20;;;3.30;98.60;;;;;;5067198;28;20868;-74
2021/04/12 04:49:37;;;;;;;18.33;8.50;;;3.30;98.70;;;;;;5064311;28;20413;-73
2021/04/12 04:52:25;;;;;;;18.73;8.27;;;3.10;98.70;;;;;;5065575;28;20478;-74
2021/04/12 04:55:03;;;;;;;14.43;7.17;;;3.10;98.90;;;;;;5069152;28;20494;-73
2021/04/12 04:58:06;;;;;;;16.27;7.78;;;3.00;98.90;;;;;;5067691;28;20472;-72
2021/04/12 05:00:52;;;;;;;17.07;7.70;;;3.10;99.10;;;;;;5068901;28;20986;-73
2021/04/12 05:03:45;;;;;;;14.67;6.97;;;3.00;98.90;;;;;;5056194;28;20471;-73
2021/04/12 05:06:44;;;;;;;17.57;7.03;;;3.00;98.80;;;;;;5069720;28;20765;-74
2021/04/12 05:09:19;;;;;;;22.00;6.67;;;2.90;99.00;;;;;;5073160;28;20430;-73
2021/04/12 05:12:15;;;;;;;16.27;6.50;;;2.90;98.90;;;;;;5072464;28;20457;-72
2021/04/12 05:15:18;;;;;;;19.10;8.13;;;2.80;98.70;;;;;;5053015;28;20993;-72
2021/04/12 05:18:08;;;;;;;15.40;7.25;;;2.80;99.10;;;;;;5064293;28;20239;-72
2021/04/12 05:20:56;;;;;;;18.30;8.47;;;2.80;99.30;;;;;;5067309;28;20187;-73
2021/04/12 05:23:44;;;;;;;16.35;8.23;;;2.80;99.50;;;;;;5072713;28;20498;-73
2021/04/12 05:26:30;;;;;;;17.02;7.32;;;2.90;99.70;;;;;;5068349;28;20196;-74
2021/04/12 05:28:56;;;;;;;20.55;9.02;;;2.70;98.90;;;;;;5069743;28;20595;-73
2021/04/12 05:32:11;;;;;;;20.20;8.57;;;2.70;99.10;;;;;;5073596;28;20265;-72
2021/04/12 05:34:55;;;;;;;23.03;10.70;;;2.80;99.40;;;;;;5071624;28;20196;-74
2021/04/12 05:38:15;;;;;;;20.83;10.63;;;2.80;99.60;;;;;;5073186;28;20434;-74
2021/04/12 05:40:54;;;;;;;22.90;10.32;;;2.70;99.60;;;;;;4994717;28;20321;-72
2021/04/12 05:43:38;;;;;;;22.58;9.65;;;2.70;99.70;;;;;;5061133;28;20294;-72
2021/04/12 05:46:28;;;;;;;22.77;9.95;;;2.70;99.70;;;;;;5071495;28;20195;-74
2021/04/12 05:49:23;;;;;;;22.77;10.50;;;2.70;99.50;;;;;;5060528;28;20619;-72
2021/04/12 05:52:27;;;;;;;25.00;10.13;;;2.50;99.30;;;;;;5075257;28;20469;-73
2021/04/12 05:55:09;;;;;;;24.08;11.30;;;2.60;99.70;;;;;;5073929;28;20199;-73
2021/04/12 05:58:12;;;;;;;21.45;10.13;;;2.70;99.80;;;;;;5081234;28;20998;-73
2021/04/12 06:01:10;;;;;;;21.45;8.93;;;2.80;99.90;;;;;;5062335;28;20195;-72
2021/04/12 06:03:48;;;;;;;20.07;9.87;;;2.80;99.90;;;;;;5058261;28;20188;-74
2021/04/12 06:06:32;;;;;;;23.20;11.40;;;2.90;99.90;;;;;;5070404;28;20414;-73
2021/04/12 06:09:16;;;;;;;23.00;10.45;;;2.90;99.90;;;;;;5071113;28;20279;-74
2021/04/12 06:12:00;;;;;;;25.45;10.60;;;3.00;99.80;;;;;;5066462;28;20418;-73
2021/04/12 06:14:47;;;;;;;25.23;11.10;;;3.10;99.80;;;;;;5065046;28;20664;-72
2021/04/12 06:18:13;;;;;;;22.30;8.95;;;3.10;99.50;;;;;;5059567;28;20447;-73
2021/04/12 06:21:15;;;;;;;22.57;10.90;;;3.20;99.40;;;;;;5012261;28;20214;-75
2021/04/12 06:24:02;;;;;;;21.30;9.40;;;3.30;99.40;;;;;;5006861;28;20444;-74
2021/04/12 06:26:51;;;;;;;19.17;9.83;;;3.40;99.00;;;;;;5014717;28;21112;-73
2021/04/12 06:29:28;;;;;;;17.17;9.17;;;3.50;98.90;;;;;;5006037;28;20441;-73
2021/04/12 06:32:14;;;;;;;19.87;9.83;;;3.60;98.40;;;;;;5004292;28;20480;-73
2021/04/12 06:35:01;;;;;;;23.70;10.50;;;3.60;97.30;;;;;;4988131;28;20494;-73
2021/04/12 06:37:39;;;;;;;22.57;10.10;;;3.70;97.20;;;;;;5003815;28;20511;-73
2021/04/12 06:40:33;;;;;;;25.20;11.40;;;3.60;97.30;;;;;;5001225;28;20479;-73
2021/04/12 06:43:14;;;;;;;24.83;11.10;;;3.70;97.10;;;;;;4979848;28;20444;-74
2021/04/12 06:46:00;;;;;;;25.63;11.07;;;3.70;97.20;;;;;;4988564;28;20464;-74
2021/04/12 06:48:41;;;;;;;25.73;11.03;;;3.90;97.20;;;;;;5000648;28;20465;-73
2021/04/12 06:51:28;;;;;;;21.80;10.93;;;3.70;96.50;;;;;;5035386;28;20515;-75
2021/04/12 06:54:09;;;;;;;22.03;11.23;;;3.70;96.20;;;;;;5063454;28;20434;-74
2021/04/12 06:56:57;;;;;;;19.30;9.93;;;3.80;96.50;;;;;;5065096;28;20446;-71
2021/04/12 07:00:00;;;;;;;21.30;9.60;;;3.80;96.60;;;;;;5067048;28;21176;-71
2021/04/12 07:02:34;;;;;;;23.57;10.93;;;3.80;96.40;;;;;;5069296;28;20413;-71
2021/04/12 07:05:18;;;;;;;18.80;9.50;;;3.80;96.00;;;;;;5061674;28;20440;-72
2021/04/12 07:07:59;;;;;;;19.77;9.73;;;3.90;96.30;;;;;;5064137;28;20445;-71
2021/04/12 07:11:02;;;;;;;17.93;9.20;;;4.00;96.40;;;;;;5059377;28;20969;-70
2021/04/12 07:13:49;;;;;;;21.77;9.80;;;4.10;95.90;;;;;;5053432;28;20449;-70
2021/04/12 07:16:46;;;;;;;18.30;9.50;;;4.10;95.60;;;;;;5056026;28;20410;-70
2021/04/12 07:19:20;;;;;;;20.00;9.80;;;4.30;95.90;;;;;;5064475;28;20471;-71
2021/04/12 07:21:55;;;;;;;21.00;9.97;;;4.20;95.10;;;;;;5063462;28;21270;-70
2021/04/12 07:24:31;;;;;;;21.20;10.63;;;4.10;94.90;;;;;;5064414;28;20927;-72
2021/04/12 07:27:27;;;;;;;25.90;11.30;;;4.00;95.00;;;;;;5052807;28;20463;-72
2021/04/12 07:30:05;;;;;;;19.30;10.30;;;3.90;95.40;;;;;;5054473;28;20431;-73
2021/04/12 07:33:11;;;;;;;25.03;11.17;;;4.00;95.60;;;;;;5058676;28;20477;-71
2021/04/12 07:36:00;;;;;;;26.37;12.33;;;3.90;95.50;;;;;;5017153;28;20463;-71
2021/04/12 07:39:03;;;;;;;25.40;12.10;;;3.90;95.50;;;;;;5003442;28;20444;-71
2021/04/12 07:42:05;;;;;;;24.20;10.93;;;3.90;95.50;;;;;;5002156;28;20814;-71
2021/04/12 07:45:13;;;;;;;22.60;10.40;;;3.90;95.10;;;;;;5007788;28;20432;-72
2021/04/12 07:47:54;;;;;;;25.87;11.93;;;3.80;94.40;;;;;;5018352;28;20463;-71
2021/04/12 07:51:01;;;;;;;28.83;11.73;;;3.80;94.80;;;;;;5005459;28;20481;-71
2021/04/12 07:54:06;;;;;;;24.83;12.20;;;3.90;95.60;;;;;;5025579;28;20597;-72
2021/04/12 07:56:44;;;;;;;21.67;11.07;;;4.10;95.40;;;;;;5009316;28;20531;-72
2021/04/12 07:59:56;;;;;;;26.73;11.80;;;4.20;94.60;;;;;;5024469;28;20415;-71
2021/04/12 08:03:03;;;;;;;24.10;11.73;;;4.30;93.70;;;;;;5008246;28;20436;-72
2021/04/12 08:06:09;;;;;;;24.60;12.23;;;4.40;93.60;;;;;;5026120;28;20444;-71
2021/04/12 08:08:38;;;;;;;25.90;12.17;;;4.60;93.70;;;;;;5018902;28;20530;-71
2021/04/12 08:11:42;;;;;;;25.70;12.43;;;4.60;93.30;;;;;;5026566;28;20432;-71
2021/04/12 08:14:49;;;;;;;31.07;13.80;;;4.50;92.60;;;;;;5069652;28;20413;-71
2021/04/12 08:17:48;;;;;;;27.60;13.97;;;4.50;92.90;;;;;;5070699;28;20470;-71
2021/04/12 08:21:03;;;;;;;27.77;13.70;;;4.70;92.80;;;;;;5070058;28;20436;-70
2021/04/12 08:23:43;;;;;;;31.20;13.60;;;4.80;92.30;;;;;;5005742;28;20440;-71
2021/04/12 08:26:12;;;;;;;32.23;13.67;;;4.80;92.10;;;;;;4981475;28;20850;-72
2021/04/12 08:28:59;;;;;;;27.07;12.83;;;5.00;92.00;;;;;;5010119;28;20424;-71
2021/04/12 08:31:45;;;;;;;26.63;13.67;;;5.10;90.80;;;;;;4996791;28;20471;-71
2021/04/12 08:34:47;;;;;;;29.80;13.97;;;4.90;90.30;;;;;;5010624;28;20425;-72
2021/04/12 08:37:31;;;;;;;28.30;12.77;;;5.10;90.80;;;;;;5006541;28;20436;-72
2021/04/12 08:40:15;;;;;;;25.30;13.00;;;5.30;91.20;;;;;;4993592;28;20520;-72
2021/04/12 08:42:47;;;;;;;23.33;12.03;;;5.10;89.00;;;;;;5004829;28;20439;-72
2021/04/12 08:45:25;;;;;;;29.33;13.20;;;4.90;88.00;;;;;;5005264;28;20525;-71
2021/04/12 08:48:00;;;;;;;24.67;12.20;;;5.00;88.10;;;;;;5006088;28;20532;-70
2021/04/12 08:51:00;;;;;;;26.67;13.30;;;5.20;88.10;;;;;;5007405;28;20525;-72
2021/04/12 08:53:51;;;;;;;23.20;11.87;;;5.20;87.60;;;;;;4966612;28;703249;-70
2021/04/12 08:56:48;;;;;;;25.53;11.90;;;5.30;87.70;;;;;;5007553;28;20425;-74
2021/04/12 08:59:35;;;;;;;22.87;11.13;;;5.10;87.30;;;;;;5015707;28;20452;-71
2021/04/12 09:02:39;;;;;;;29.97;12.20;;;5.10;86.50;;;;;;5067866;28;20454;-71
2021/04/12 09:05:34;;;;;;;16.83;9.80;;;4.90;86.30;;;;;;5067393;28;20429;-71
2021/04/12 09:08:29;;;;;;;24.13;11.73;;;4.90;88.10;;;;;;5068598;28;20889;-71
2021/04/12 09:11:20;;;;;;;24.40;12.30;;;5.00;87.80;;;;;;5059336;28;20476;-71
2021/04/12 09:14:14;;;;;;;22.30;10.47;;;5.20;88.30;;;;;;5068759;28;21106;-72
2021/04/12 09:17:08;;;;;;;20.33;10.83;;;5.30;86.90;;;;;;5066731;28;20444;-71
2021/04/12 09:20:00;;;;;;;16.13;10.37;;;5.20;85.50;;;;;;5069082;28;20496;-72
2021/04/12 09:22:48;;;;;;;23.40;10.30;;;5.30;86.00;;;;;;5070986;28;20426;-72
2021/04/12 09:25:58;;;;;;;22.67;10.60;;;5.40;86.00;;;;;;5069426;28;20434;-71
2021/04/12 09:29:01;;;;;;;20.03;11.10;;;5.50;83.40;;;;;;5051671;28;20478;-70
2021/04/12 09:31:51;;;;;;;25.30;11.40;;;5.60;83.80;;;;;;5066562;28;21472;-73
2021/04/12 09:34:35;;;;;;;18.53;9.97;;;5.60;83.70;;;;;;5065203;28;20446;-72
2021/04/12 09:37:19;;;;;;;19.93;11.47;;;6.00;83.60;;;;;;5056109;28;20450;-71
2021/04/12 09:40:06;;;;;;;15.87;9.30;;;6.10;80.20;;;;;;5067290;28;20426;-72
2021/04/12 09:42:50;;;;;;;15.40;7.80;;;6.10;79.90;;;;;;5060502;28;20434;-71
2021/04/12 09:45:40;;;;;;;14.10;7.80;;;6.30;79.50;;;;;;5054555;28;20435;-72
2021/04/12 09:48:36;;;;;;;11.60;7.37;;;6.30;78.90;;;;;;5062444;28;20469;-72
2021/04/12 09:51:30;;;;;;;16.90;10.17;;;6.40;78.10;;;;;;5066252;28;20417;-73
2021/04/12 09:54:21;;;;;;;15.33;7.57;;;6.50;76.50;;;;;;5065089;28;20453;-72
2021/04/12 09:56:58;;;;;;;14.53;8.57;;;6.30;74.20;;;;;;5071061;28;20968;-73
2021/04/12 10:00:01;;;;;;;17.47;8.43;;;6.10;74.60;;;;;;5076197;28;20429;-73
2021/04/12 10:02:46;;;;;;;12.73;6.30;;;5.90;75.10;;;;;;5048851;28;20479;-72
2021/04/12 10:05:30;;;;;;;8.70;6.43;;;5.80;73.50;;;;;;5073405;28;20413;-73
2021/04/12 10:08:23;;;;;;;12.37;6.60;;;5.80;73.90;;;;;;5075337;28;20472;-73
2021/04/12 10:11:04;;;;;;;14.10;6.73;;;5.90;73.60;;;;;;5054750;28;20469;-72
2021/04/12 10:13:44;;;;;;;12.60;7.30;;;6.00;75.20;;;;;;5059485;28;20525;-71
2021/04/12 10:16:26;;;;;;;12.33;6.53;;;6.00;75.20;;;;;;5068657;28;20413;-72
2021/04/12 10:19:04;;;;;;;14.07;7.23;;;6.10;74.20;;;;;;5069871;28;20421;-73
2021/04/12 10:21:55;;;;;;;13.53;5.60;;;6.20;74.50;;;;;;5070529;28;20410;-71
2021/04/12 10:24:39;;;;;;;13.33;5.83;;;6.30;72.90;;;;;;5069807;28;20437;-71
2021/04/12 10:27:10;;;;;;;8.93;5.27;;;6.40;71.10;;;;;;5061606;28;20434;-71
2021/04/12 10:29:49;;;;;;;8.53;4.77;;;6.10;70.70;;;;;;5059582;28;20520;-72
2021/04/12 10:32:20;;;;;;;16.43;5.60;;;6.20;67.60;;;;;;5066506;28;20469;-71
2021/04/12 10:35:01;;;;;;;8.80;5.23;;;6.30;68.20;;;;;;5066838;28;20486;-71
2021/04/12 10:37:54;;;;;;;14.00;5.10;;;6.50;67.00;;;;;;5067391;28;20473;-72
2021/04/12 10:40:32;;;;;;;6.87;4.80;;;6.40;64.10;;;;;;5064919;28;20580;-72
2021/04/12 10:43:24;;;;;;;7.73;4.20;;;6.80;64.10;;;;;;5064589;28;20508;-72
2021/04/12 10:45:58;;;;;;;6.77;4.50;;;7.00;62.30;;;;;;5067171;28;20430;-73
2021/04/12 10:48:51;;;;;;;6.23;4.30;;;7.40;61.00;;;;;;5065633;28;20997;-71
2021/04/12 10:51:32;;;;;;;8.43;4.50;;;7.10;57.60;;;;;;5059934;28;20433;-72
2021/04/12 10:54:35;;;;;;;9.50;4.53;;;7.10;61.00;;;;;;5067344;28;20464;-71
2021/04/12 10:57:32;;;;;;;6.53;4.33;;;7.00;63.10;;;;;;5066745;28;20528;-71
2021/04/12 11:00:35;;;;;;;8.03;4.00;;;7.10;60.40;;;;;;5004827;28;20482;-72
2021/04/12 11:03:25;;;;;;;5.53;3.97;;;7.00;58.80;;;;;;5003812;28;20443;-73
2021/04/12 11:06:04;;;;;;;6.43;3.80;;;7.10;56.80;;;;;;4990559;28;20429;-72
2021/04/12 11:08:56;;;;;;;8.20;4.30;;;7.00;58.70;;;;;;5001632;28;21014;-72
2021/04/12 11:11:38;;;;;;;7.57;4.30;;;7.20;59.10;;;;;;5003854;28;20449;-72
2021/04/12 11:14:40;;;;;;;7.83;4.63;;;7.10;60.00;;;;;;5009245;28;20477;-72
2021/04/12 11:17:13;;;;;;;6.53;4.17;;;7.20;60.70;;;;;;4991532;28;20922;-71
2021/04/12 11:20:04;;;;;;;9.73;4.47;;;7.20;58.70;;;;;;5004259;28;20424;-72
2021/04/12 11:22:58;;;;;;;14.37;4.57;;;7.10;59.90;;;;;;4988249;28;21015;-73
2021/04/12 11:25:44;;;;;;;9.40;3.50;;;7.40;58.90;;;;;;5008635;28;20622;-73
2021/04/12 11:28:31;;;;;;;6.13;3.63;;;7.40;56.10;;;;;;4999290;28;20528;-74
2021/04/12 11:31:21;;;;;;;6.30;3.67;;;7.30;56.80;;;;;;5014948;28;20445;-73
2021/04/12 11:34:00;;;;;;;6.70;3.40;;;7.40;58.40;;;;;;5002912;28;20926;-72
2021/04/12 11:36:49;;;;;;;8.40;3.83;;;7.20;59.90;;;;;;5022939;28;21160;-73
2021/04/12 11:39:17;;;;;;;5.43;3.33;;;6.90;60.70;;;;;;5066187;28;20465;-73
2021/04/12 11:42:00;;;;;;;6.80;3.40;;;6.60;57.80;;;;;;5061431;28;20434;-74
2021/04/12 11:44:37;;;;;;;11.73;3.83;;;6.80;60.00;;;;;;5066591;28;21023;-73
2021/04/12 11:47:18;;;;;;;5.10;3.40;;;7.10;56.60;;;;;;5064813;28;21296;-73
2021/04/12 11:50:02;;;;;;;6.63;3.17;;;7.00;55.30;;;;;;5064276;28;20434;-72
2021/04/12 11:52:49;;;;;;;5.87;2.63;;;7.30;54.90;;;;;;5064576;28;20473;-73
2021/04/12 11:55:46;;;;;;;6.23;3.37;;;7.30;53.30;;;;;;5063639;28;20430;-72
2021/04/12 11:58:16;;;;;;;5.27;3.13;;;7.60;53.20;;;;;;5065613;28;20873;-73
2021/04/12 12:01:12;;;;;;;7.93;3.07;;;8.00;51.70;;;;;;5064758;28;20418;-72
2021/04/12 12:03:54;;;;;;;5.20;3.03;;;8.20;50.30;;;;;;5065385;28;20433;-72
2021/04/12 12:06:48;;;;;;;3.53;2.60;;;8.30;50.30;;;;;;5059987;28;20431;-72
2021/04/12 12:09:37;;;;;;;8.20;3.73;;;8.20;49.10;;;;;;5053670;28;20450;-72
2021/04/12 12:12:28;;;;;;;4.97;3.10;;;8.20;51.70;;;;;;5064514;28;20560;-71
2021/04/12 12:15:20;;;;;;;5.10;3.10;;;8.10;50.60;;;;;;5064003;28;20479;-72
2021/04/12 12:18:00;;;;;;;4.20;2.80;;;7.90;52.40;;;;;;5065129;28;20534;-72
2021/04/12 12:20:44;;;;;;;7.43;2.90;;;7.80;51.60;;;;;;5062971;28;20453;-72
2021/04/12 12:23:34;;;;;;;5.00;3.13;;;7.70;52.60;;;;;;5068496;28;20429;-72
2021/04/12 12:26:04;;;;;;;5.20;3.00;;;7.40;53.00;;;;;;5067923;28;20422;-72
2021/04/12 12:28:42;;;;;;;6.03;3.50;;;7.30;54.10;;;;;;5054466;28;20525;-70
2021/04/12 12:31:35;;;;;;;5.03;3.00;;;7.30;54.10;;;;;;5067435;28;20430;-72
2021/04/12 12:34:03;;;;;;;3.20;2.70;;;7.30;55.60;;;;;;5068928;28;20510;-73
2021/04/12 12:36:58;;;;;;;5.00;2.90;;;7.40;54.90;;;;;;5066958;28;21227;-70
2021/04/12 12:39:33;;;;;;;8.10;3.60;;;7.70;53.70;;;;;;5067131;28;20430;-72
2021/04/12 12:42:02;;;;;;;6.17;2.80;;;7.90;52.90;;;;;;5063750;28;20433;-72
2021/04/12 12:44:29;;;;;;;9.00;3.00;;;8.30;50.20;;;;;;5068551;28;20430;-72
2021/04/12 12:46:57;;;;;;;5.53;2.60;;;8.60;49.00;;;;;;5068563;28;20473;-70
2021/04/12 12:49:30;;;;;;;3.33;2.30;;;8.90;47.30;;;;;;5068656;28;20441;-71
2021/04/12 12:52:11;;;;;;;3.63;2.70;;;8.90;47.30;;;;;;5063417;28;20482;-71
2021/04/12 12:54:45;;;;;;;4.80;2.50;;;9.10;47.10;;;;;;5056207;28;20417;-72
2021/04/12 12:57:14;;;;;;;5.10;3.03;;;9.00;45.90;;;;;;5066281;28;20454;-72
2021/04/12 12:59:46;;;;;;;8.30;2.50;;;9.20;47.50;;;;;;5068441;28;20488;-73
2021/04/12 13:02:24;;;;;;;6.50;2.83;;;9.40;46.30;;;;;;5064140;28;20568;-74
2021/04/12 13:05:06;;;;;;;3.10;1.80;;;9.40;44.30;;;;;;5060630;28;20418;-71
2021/04/12 13:07:33;;;;;;;4.30;2.53;;;9.20;42.40;;;;;;5056380;28;20830;-72
2021/04/12 13:10:04;;;;;;;3.87;2.20;;;9.00;44.70;;;;;;5065149;28;20427;-71
2021/04/12 13:12:35;;;;;;;4.93;2.67;;;9.40;45.40;;;;;;5068854;28;20600;-73
2021/04/12 13:15:12;;;;;;;4.93;2.90;;;10.10;43.90;;;;;;5069003;28;20468;-71
2021/04/12 13:17:39;;;;;;;9.23;2.60;;;10.90;42.20;;;;;;5070440;28;20449;-72
2021/04/12 13:20:14;;;;;;;5.30;2.60;;;11.10;41.60;;;;;;5068636;28;20971;-72
2021/04/12 13:22:46;;;;;;;4.00;2.43;;;10.30;41.80;;;;;;5068229;28;20502;-72
2021/04/12 13:25:25;;;;;;;4.00;2.60;;;9.80;41.80;;;;;;5056173;28;20422;-71
2021/04/12 13:27:58;;;;;;;7.40;2.53;;;9.30;40.40;;;;;;5058474;28;20524;-73
2021/04/12 13:30:28;;;;;;;3.73;2.20;;;9.10;42.20;;;;;;5073072;28;20512;-73
2021/04/12 13:32:58;;;;;;;5.77;2.30;;;9.40;43.10;;;;;;5072206;28;20546;-73
2021/04/12 13:35:32;;;;;;;4.20;2.30;;;9.80;42.20;;;;;;5072464;28;20442;-71
2021/04/12 13:38:17;;;;;;;4.20;2.30;;;10.30;41.40;;;;;;5072418;28;20438;-73
2021/04/12 13:40:48;;;;;;;4.27;2.60;;;10.60;41.40;;;;;;5067861;28;20422;-74
2021/04/12 13:43:16;;;;;;;3.93;2.60;;;10.40;40.70;;;;;;5069616;28;20426;-73
2021/04/12 13:45:46;;;;;;;4.00;2.60;;;10.40;42.00;;;;;;5084698;28;20524;-73
2021/04/12 13:48:28;;;;;;;5.67;2.60;;;10.70;40.70;;;;;;5079979;28;20465;-72
2021/04/12 13:50:58;;;;;;;2.83;2.30;;;10.50;41.00;;;;;;5074261;28;20418;-72
2021/04/12 13:53:34;;;;;;;6.70;2.47;;;10.60;41.10;;;;;;5079134;28;20529;-72
2021/04/12 13:56:11;;;;;;;5.70;2.70;;;10.40;40.30;;;;;;5073729;28;20425;-74
2021/04/12 13:58:45;;;;;;;7.77;2.57;;;10.20;41.00;;;;;;5073379;28;20424;-72
2021/04/12 14:01:16;;;;;;;6.83;2.83;;;9.60;42.30;;;;;;5072003;28;20953;-72
2021/04/12 14:04:10;;;;;;;4.50;3.00;;;9.20;44.20;;;;;;5073371;28;20556;-72
2021/04/12 14:07:00;;;;;;;7.50;3.47;;;8.70;45.70;;;;;;5073799;28;20478;-73
2021/04/12 14:09:35;;;;;;;8.53;3.20;;;8.40;47.00;;;;;;5072698;28;20430;-73
2021/04/12 14:12:13;;;;;;;4.73;2.80;;;8.10;48.90;;;;;;5071471;28;20461;-73
2021/04/12 14:14:50;;;;;;;4.33;2.47;;;8.20;49.50;;;;;;5071312;28;20452;-71
2021/04/12 14:17:32;;;;;;;3.67;2.90;;;8.20;48.90;;;;;;5084471;28;20442;-72
2021/04/12 14:20:21;;;;;;;7.93;2.67;;;8.30;49.70;;;;;;5073143;28;20457;-72
2021/04/12 14:22:51;;;;;;;3.47;3.00;;;8.20;49.80;;;;;;5068062;28;20934;-72
2021/04/12 14:25:31;;;;;;;11.63;3.67;;;8.20;49.50;;;;;;5069050;28;20517;-72